createdAt,value
2018-12-18T00:00:19.854Z,46.9
2018-12-18T00:01:21.535Z,47.1
2018-12-18T00:02:23.430Z,47.1
2018-12-18T00:03:25.060Z,47
2018-12-18T00:04:26.678Z,47.1
2018-12-18T00:05:28.574Z,46.9
2018-12-18T00:06:29.647Z,46.9
2018-12-18T00:07:30.997Z,47
2018-12-18T00:08:32.618Z,46.9
2018-12-18T00:09:33.943Z,47.1
2018-12-18T00:10:35.360Z,47
2018-12-18T00:11:36.965Z,47
2018-12-18T00:12:38.587Z,47
2018-12-18T00:13:39.915Z,47
2018-12-18T00:14:41.806Z,47
2018-12-18T00:15:43.434Z,46.8
2018-12-18T00:16:44.778Z,47
2018-12-18T00:17:46.103Z,47
2018-12-18T00:18:48.000Z,47
2018-12-18T00:19:49.343Z,47
2018-12-18T00:20:51.280Z,47
2018-12-18T00:21:52.899Z,47
2018-12-18T00:22:54.519Z,47
2018-12-18T00:23:56.138Z,47.1
2018-12-18T00:24:57.484Z,47
2018-12-18T00:25:59.093Z,47
2018-12-18T00:27:00.991Z,47
2018-12-18T00:28:02.337Z,46.8
2018-12-18T00:29:04.233Z,47
2018-12-18T00:30:05.556Z,47.1
2018-12-18T00:31:07.177Z,47
2018-12-18T00:32:09.075Z,47.1
2018-12-18T00:33:10.714Z,46.9
2018-12-18T00:34:11.783Z,47
2018-12-18T00:35:12.828Z,47
2018-12-18T00:36:14.452Z,47
2018-12-18T00:37:16.347Z,46.8
2018-12-18T00:38:17.677Z,47
2018-12-18T00:39:19.588Z,47.1
2018-12-18T00:40:21.482Z,47.1
2018-12-18T00:41:23.131Z,46.8
2018-12-18T00:42:25.027Z,46.9
2018-12-18T00:43:26.650Z,46.9
2018-12-18T00:44:28.245Z,46.8
2018-12-18T00:45:29.588Z,47.1
2018-12-18T00:46:31.496Z,46.9
2018-12-18T00:47:33.395Z,47
2018-12-18T00:48:34.735Z,46.9
2018-12-18T00:49:36.634Z,47
2018-12-18T00:50:38.276Z,47
2018-12-18T00:51:40.171Z,47.1
2018-12-18T00:52:42.064Z,46.9
2018-12-18T00:53:43.959Z,46.8
2018-12-18T00:54:45.286Z,46.8
2018-12-18T00:55:46.884Z,47.1
2018-12-18T00:56:48.225Z,46.9
2018-12-18T00:57:49.569Z,47
2018-12-18T00:58:51.196Z,46.9
2018-12-18T00:59:53.102Z,47
2018-12-18T01:00:54.997Z,47.1
2018-12-18T01:01:56.893Z,47
2018-12-18T01:02:58.215Z,47
2018-12-18T01:03:59.816Z,46.9
2018-12-18T01:05:01.712Z,47.1
2018-12-18T01:06:03.635Z,46.9
2018-12-18T01:07:05.259Z,46.9
2018-12-18T01:08:07.152Z,47.1
2018-12-18T01:09:09.109Z,46.8
2018-12-18T01:10:11.006Z,47.1
2018-12-18T01:11:12.604Z,47.1
2018-12-18T01:12:14.500Z,47.1
2018-12-18T01:13:16.123Z,46.9
2018-12-18T01:14:17.745Z,47
2018-12-18T01:15:19.371Z,46.9
2018-12-18T01:16:20.970Z,47
2018-12-18T01:17:22.318Z,47.1
2018-12-18T01:18:23.924Z,46.9
2018-12-18T01:19:25.551Z,47.1
2018-12-18T01:20:26.879Z,46.9
2018-12-18T01:21:28.500Z,47
2018-12-18T01:22:29.900Z,47
2018-12-18T01:23:31.523Z,47
2018-12-18T01:24:32.865Z,47
2018-12-18T01:25:34.486Z,46.9
2018-12-18T01:26:36.109Z,47
2018-12-18T01:27:38.012Z,47
2018-12-18T01:28:39.922Z,47
2018-12-18T01:29:41.591Z,46.9
2018-12-18T01:30:43.486Z,47
2018-12-18T01:31:45.384Z,47
2018-12-18T01:32:47.006Z,47
2018-12-18T01:33:48.632Z,47
2018-12-18T01:34:50.235Z,47.1
2018-12-18T01:35:51.859Z,47
2018-12-18T01:36:53.760Z,47.1
2018-12-18T01:37:55.369Z,47.1
2018-12-18T01:38:57.262Z,47
2018-12-18T01:39:58.890Z,47.1
2018-12-18T01:41:00.235Z,47.1
2018-12-18T01:42:01.566Z,47.1
2018-12-18T01:43:03.192Z,46.9
2018-12-18T01:44:04.814Z,47
2018-12-18T01:45:06.157Z,46.8
2018-12-18T01:46:08.056Z,46.9
2018-12-18T01:47:09.955Z,47
2018-12-18T01:48:11.555Z,47
2018-12-18T01:49:12.602Z,46.9
2018-12-18T01:50:14.498Z,47
2018-12-18T01:51:16.124Z,47
2018-12-18T01:52:17.468Z,47
2018-12-18T01:53:19.089Z,47.1
2018-12-18T01:54:20.714Z,46.9
2018-12-18T01:55:22.337Z,47
2018-12-18T01:56:23.958Z,47
2018-12-18T01:57:25.561Z,46.9
2018-12-18T01:58:27.184Z,47.1
2018-12-18T01:59:29.099Z,47.1
2018-12-18T02:00:30.994Z,47
2018-12-18T02:01:32.891Z,47.1
2018-12-18T02:02:33.944Z,47.1
2018-12-18T02:03:34.996Z,46.9
2018-12-18T02:04:36.356Z,46.9
2018-12-18T02:05:37.972Z,46.8
2018-12-18T02:06:39.869Z,47
2018-12-18T02:07:41.217Z,46.9
2018-12-18T02:08:42.841Z,46.9
2018-12-18T02:09:44.185Z,46.9
2018-12-18T02:10:45.513Z,46.9
2018-12-18T02:11:46.618Z,47
2018-12-18T02:12:47.961Z,47
2018-12-18T02:13:49.311Z,47.2
2018-12-18T02:15:55.306Z,46.9
2018-12-18T02:16:56.931Z,46.8
2018-12-18T02:17:58.257Z,47.1
2018-12-18T02:18:59.881Z,47.1
2018-12-18T02:20:01.206Z,47
2018-12-18T02:21:02.560Z,46.9
2018-12-18T02:22:04.181Z,47
2018-12-18T02:23:05.805Z,46.9
2018-12-18T02:24:07.705Z,47
2018-12-18T02:25:09.329Z,46.8
2018-12-18T02:26:10.680Z,47
2018-12-18T02:27:12.302Z,46.9
2018-12-18T02:28:13.924Z,46.8
2018-12-18T02:29:15.824Z,46.8
2018-12-18T02:30:17.435Z,46.9
2018-12-18T02:31:19.333Z,46.9
2018-12-18T02:32:20.955Z,46.9
2018-12-18T02:33:22.311Z,46.9
2018-12-18T02:34:23.637Z,47
2018-12-18T02:35:25.537Z,46.7
2018-12-18T02:36:27.167Z,46.9
2018-12-18T02:37:28.793Z,46.9
2018-12-18T02:38:30.415Z,46.8
2018-12-18T02:39:32.316Z,46.8
2018-12-18T02:40:34.216Z,47
2018-12-18T02:41:36.109Z,46.9
2018-12-18T02:42:37.434Z,46.7
2018-12-18T02:43:39.055Z,47
2018-12-18T02:44:40.676Z,47
2018-12-18T02:45:41.726Z,46.8
2018-12-18T02:46:43.357Z,47
2018-12-18T02:47:45.247Z,47
2018-12-18T02:48:46.875Z,47.1
2018-12-18T02:49:47.921Z,47
2018-12-18T02:50:49.275Z,46.9
2018-12-18T02:51:50.877Z,47
2018-12-18T02:52:52.212Z,46.8
2018-12-18T02:53:53.544Z,46.8
2018-12-18T02:54:55.170Z,46.9
2018-12-18T02:55:56.494Z,47.1
2018-12-18T02:56:58.121Z,46.8
2018-12-18T02:58:00.021Z,46.9
2018-12-18T02:59:01.926Z,46.8
2018-12-18T03:00:03.548Z,46.8
2018-12-18T03:01:04.882Z,46.9
2018-12-18T03:02:06.233Z,46.6
2018-12-18T03:03:07.855Z,46.8
2018-12-18T03:04:08.909Z,46.9
2018-12-18T03:05:10.809Z,46.8
2018-12-18T03:06:12.705Z,46.9
2018-12-18T03:07:14.330Z,46.9
2018-12-18T03:08:15.958Z,47
2018-12-18T03:09:17.564Z,46.7
2018-12-18T03:10:19.460Z,46.7
2018-12-18T03:11:21.085Z,46.8
2018-12-18T03:12:22.985Z,46.8
2018-12-18T03:13:24.882Z,46.7
2018-12-18T03:14:26.254Z,46.8
2018-12-18T03:15:27.879Z,46.8
2018-12-18T03:16:29.777Z,46.8
2018-12-18T03:17:31.680Z,46.9
2018-12-18T03:18:33.025Z,46.7
2018-12-18T03:19:34.923Z,46.8
2018-12-18T03:20:36.536Z,46.8
2018-12-18T03:21:38.160Z,46.8
2018-12-18T03:22:40.060Z,46.8
2018-12-18T03:23:41.658Z,46.7
2018-12-18T03:24:43.553Z,46.7
2018-12-18T03:25:45.461Z,46.7
2018-12-18T03:26:47.084Z,46.8
2018-12-18T03:27:48.691Z,46.7
2018-12-18T03:28:50.323Z,46.8
2018-12-18T03:29:51.668Z,46.8
2018-12-18T03:30:53.291Z,46.8
2018-12-18T03:31:54.646Z,46.7
2018-12-18T03:32:56.276Z,46.8
2018-12-18T03:33:58.177Z,46.8
2018-12-18T03:35:00.087Z,46.8
2018-12-18T03:36:01.988Z,46.8
2018-12-18T03:37:03.628Z,46.7
2018-12-18T03:38:04.981Z,46.7
2018-12-18T03:39:06.603Z,46.8
2018-12-18T03:40:08.231Z,46.9
2018-12-18T03:41:10.129Z,46.7
2018-12-18T03:42:12.029Z,46.7
2018-12-18T03:43:13.376Z,46.8
2018-12-18T03:44:14.979Z,46.9
2018-12-18T03:45:16.598Z,46.8
2018-12-18T03:46:18.226Z,46.8
2018-12-18T03:47:19.851Z,46.8
2018-12-18T03:48:21.454Z,46.7
2018-12-18T03:49:23.076Z,46.9
2018-12-18T03:50:24.679Z,46.7
2018-12-18T03:51:26.008Z,46.7
2018-12-18T03:52:27.357Z,46.8
2018-12-18T03:53:29.259Z,46.7
2018-12-18T03:54:30.885Z,46.8
2018-12-18T03:55:32.212Z,46.7
2018-12-18T03:56:34.128Z,46.7
2018-12-18T03:57:36.026Z,46.7
2018-12-18T03:58:37.923Z,46.7
2018-12-18T03:59:39.547Z,46.7
2018-12-18T04:00:41.445Z,46.6
2018-12-18T04:01:43.344Z,46.6
2018-12-18T04:02:44.977Z,46.7
2018-12-18T04:03:46.871Z,46.8
2018-12-18T04:04:48.496Z,46.8
2018-12-18T04:05:50.115Z,46.7
2018-12-18T04:06:51.440Z,46.7
2018-12-18T04:07:52.797Z,46.8
2018-12-18T04:08:54.413Z,46.8
2018-12-18T04:09:55.745Z,46.8
2018-12-18T04:10:57.368Z,46.7
2018-12-18T04:11:58.995Z,46.7
2018-12-18T04:13:00.895Z,46.7
2018-12-18T04:14:02.220Z,46.7
2018-12-18T04:15:03.301Z,46.6
2018-12-18T04:16:04.910Z,46.7
2018-12-18T04:17:06.809Z,46.8
2018-12-18T04:18:08.712Z,46.6
2018-12-18T04:19:10.621Z,46.6
2018-12-18T04:20:12.250Z,46.5
2018-12-18T04:21:14.151Z,46.6
2018-12-18T04:22:16.049Z,46.6
2018-12-18T04:23:17.676Z,46.8
2018-12-18T04:24:19.305Z,46.7
2018-12-18T04:25:20.899Z,46.7
2018-12-18T04:26:22.524Z,46.7
2018-12-18T04:27:24.204Z,46.6
2018-12-18T04:28:25.810Z,46.6
2018-12-18T04:29:27.437Z,46.7
2018-12-18T04:30:29.336Z,46.8
2018-12-18T04:31:30.958Z,46.8
2018-12-18T04:32:32.857Z,46.8
2018-12-18T04:33:34.481Z,46.6
2018-12-18T04:34:43.350Z,46.7
2018-12-18T04:35:44.973Z,46.6
2018-12-18T04:36:46.872Z,46.7
2018-12-18T04:37:48.496Z,46.7
2018-12-18T04:38:49.849Z,46.6
2018-12-18T04:39:51.168Z,46.7
2018-12-18T04:40:53.067Z,46.7
2018-12-18T04:41:54.689Z,46.6
2018-12-18T04:42:56.594Z,46.7
2018-12-18T04:43:57.643Z,46.7
2018-12-18T04:44:59.264Z,46.7
2018-12-18T04:46:00.591Z,46.6
2018-12-18T04:47:02.489Z,46.8
2018-12-18T04:48:04.090Z,46.7
2018-12-18T04:49:05.769Z,46.6
2018-12-18T04:50:07.114Z,46.7
2018-12-18T04:51:08.436Z,46.6
2018-12-18T04:52:09.774Z,46.6
2018-12-18T04:53:11.670Z,46.7
2018-12-18T04:54:13.295Z,46.5
2018-12-18T04:55:14.918Z,46.7
2018-12-18T04:56:16.545Z,46.7
2018-12-18T04:57:17.902Z,46.6
2018-12-18T04:58:19.528Z,46.6
2018-12-18T04:59:20.893Z,46.7
2018-12-18T05:00:22.498Z,46.6
2018-12-18T05:01:24.399Z,46.6
2018-12-18T05:02:26.297Z,46.6
2018-12-18T05:03:27.923Z,46.6
2018-12-18T05:04:29.525Z,46.6
2018-12-18T05:05:31.128Z,46.7
2018-12-18T05:06:33.026Z,46.6
2018-12-18T05:07:34.375Z,46.6
2018-12-18T05:08:36.270Z,46.6
2018-12-18T05:09:37.595Z,46.6
2018-12-18T05:10:39.220Z,46.7
2018-12-18T05:11:41.123Z,46.7
2018-12-18T05:12:42.468Z,46.7
2018-12-18T05:13:44.093Z,46.5
2018-12-18T05:14:45.696Z,46.5
2018-12-18T05:15:47.594Z,46.6
2018-12-18T05:16:49.495Z,46.6
2018-12-18T05:17:51.393Z,46.5
2018-12-18T05:18:53.013Z,46.6
2018-12-18T05:19:54.614Z,46.6
2018-12-18T05:20:56.516Z,46.8
2018-12-18T05:21:58.414Z,46.6
2018-12-18T05:23:00.051Z,46.6
2018-12-18T05:24:01.161Z,46.8
2018-12-18T05:25:02.508Z,46.6
2018-12-18T05:26:03.834Z,46.6
2018-12-18T05:27:05.159Z,46.3
2018-12-18T05:28:07.061Z,46.7
2018-12-18T05:29:08.685Z,46.6
2018-12-18T05:30:10.577Z,46.6
2018-12-18T05:31:12.476Z,46.3
2018-12-18T05:32:14.103Z,46.6
2018-12-18T05:33:16.002Z,46.5
2018-12-18T05:34:17.627Z,46.3
2018-12-18T05:35:19.250Z,46.2
2018-12-18T05:36:20.604Z,46.3
2018-12-18T05:37:22.222Z,46.3
2018-12-18T05:38:24.153Z,46.3
2018-12-18T05:39:26.038Z,46.4
2018-12-18T05:40:27.935Z,46.2
2018-12-18T05:41:29.554Z,46.3
2018-12-18T05:42:31.174Z,46.2
2018-12-18T05:43:33.072Z,46.3
2018-12-18T05:44:34.124Z,46.2
2018-12-18T05:45:35.447Z,46.2
2018-12-18T05:46:37.346Z,46.2
2018-12-18T05:47:38.699Z,46.3
2018-12-18T05:48:40.319Z,46.4
2018-12-18T05:49:41.944Z,46.3
2018-12-18T05:50:43.565Z,46.4
2018-12-18T05:51:45.188Z,46.3
2018-12-18T05:52:47.085Z,46.4
2018-12-18T05:53:48.706Z,46.5
2018-12-18T05:54:50.350Z,46.7
2018-12-18T05:55:51.970Z,46.3
2018-12-18T05:56:53.594Z,46.7
2018-12-18T05:57:55.217Z,46.6
2018-12-18T05:58:56.874Z,46.4
2018-12-18T05:59:58.500Z,46.4
2018-12-18T06:00:59.829Z,46.6
2018-12-18T06:02:01.171Z,46.4
2018-12-18T06:03:02.792Z,46.5
2018-12-18T06:04:04.119Z,46.4
2018-12-18T06:05:05.744Z,46.2
2018-12-18T06:06:07.643Z,46.2
2018-12-18T06:07:09.263Z,46.4
2018-12-18T06:08:10.886Z,46.5
2018-12-18T06:09:11.955Z,46.4
2018-12-18T06:10:13.580Z,46.3
2018-12-18T06:11:14.905Z,46.2
2018-12-18T06:12:16.524Z,46.6
2018-12-18T06:13:18.147Z,46.3
2018-12-18T06:14:19.787Z,46.6
2018-12-18T06:15:21.411Z,46.4
2018-12-18T06:16:23.046Z,46.4
2018-12-18T06:17:24.945Z,46.4
2018-12-18T06:18:26.294Z,46.3
2018-12-18T06:19:27.921Z,46.5
2018-12-18T06:20:29.271Z,46.4
2018-12-18T06:21:30.621Z,46.3
2018-12-18T06:22:32.281Z,46.3
2018-12-18T06:23:33.906Z,46.3
2018-12-18T06:24:35.237Z,46.2
2018-12-18T06:25:37.157Z,46.6
2018-12-18T06:26:38.594Z,46.3
2018-12-18T06:27:40.216Z,46.2
2018-12-18T06:28:42.130Z,46.3
2018-12-18T06:29:43.478Z,46.4
2018-12-18T06:30:44.838Z,46.2
2018-12-18T06:31:46.827Z,46.5
2018-12-18T06:32:48.449Z,46.5
2018-12-18T06:33:50.080Z,46.2
2018-12-18T06:34:51.433Z,46.3
2018-12-18T06:35:52.755Z,46.2
2018-12-18T06:36:54.651Z,46.2
2018-12-18T06:37:56.552Z,46.2
2018-12-18T06:38:57.898Z,46.2
2018-12-18T06:39:59.530Z,46.2
2018-12-18T06:41:01.141Z,46.2
2018-12-18T06:42:02.768Z,46.3
2018-12-18T06:43:04.670Z,46.2
2018-12-18T06:44:06.270Z,46.3
2018-12-18T06:45:07.897Z,46.2
2018-12-18T06:46:09.495Z,46.3
2018-12-18T06:47:11.434Z,46.3
2018-12-18T06:48:13.053Z,46.2
2018-12-18T06:49:14.966Z,46.2
2018-12-18T06:50:16.315Z,46.5
2018-12-18T06:51:17.658Z,46.4
2018-12-18T06:52:19.284Z,46.6
2018-12-18T06:53:21.183Z,46.4
2018-12-18T06:54:22.814Z,46.6
2018-12-18T06:55:25.975Z,46.8
2018-12-18T06:56:27.306Z,46.5
2018-12-18T06:57:28.957Z,46.4
2018-12-18T06:58:30.860Z,46.7
2018-12-18T06:59:32.758Z,46.8
2018-12-18T07:00:34.661Z,46.7
2018-12-18T07:01:36.283Z,46.7
2018-12-18T07:02:38.188Z,46.8
2018-12-18T07:03:40.089Z,46.8
2018-12-18T07:04:41.992Z,47.1
2018-12-18T07:05:43.343Z,47.1
2018-12-18T07:06:45.074Z,47
2018-12-18T07:07:46.931Z,47
2018-12-18T07:08:48.287Z,46.8
2018-12-18T07:09:49.915Z,47.1
2018-12-18T07:10:51.250Z,47
2018-12-18T07:11:52.329Z,47
2018-12-18T07:12:54.298Z,47.1
2018-12-18T07:13:55.922Z,47.1
2018-12-18T07:14:57.824Z,46.9
2018-12-18T07:15:59.182Z,46.9
2018-12-18T07:17:00.817Z,47.1
2018-12-18T07:18:02.175Z,47.1
2018-12-18T07:19:03.833Z,46.8
2018-12-18T07:20:05.736Z,47
2018-12-18T07:21:07.340Z,46.8
2018-12-18T07:22:09.242Z,47.1
2018-12-18T07:23:11.150Z,47.1
2018-12-18T07:24:14.834Z,47.2
2018-12-18T07:25:16.445Z,47.1
2018-12-18T07:26:17.790Z,47.2
2018-12-18T07:27:19.421Z,47
2018-12-18T07:28:20.764Z,47.1
2018-12-18T07:29:22.718Z,47.1
2018-12-18T07:30:24.345Z,46.9
2018-12-18T07:31:25.701Z,47
2018-12-18T07:32:27.390Z,47
2018-12-18T07:33:29.223Z,47
2018-12-18T07:34:33.900Z,47
2018-12-18T07:35:35.230Z,46.9
2018-12-18T07:36:37.137Z,46.9
2018-12-18T07:37:38.188Z,47.2
2018-12-18T07:38:39.536Z,47
2018-12-18T07:39:41.166Z,46.9
2018-12-18T07:40:42.792Z,47
2018-12-18T07:41:44.429Z,47.2
2018-12-18T07:42:46.327Z,47
2018-12-18T07:43:47.378Z,47.1
2018-12-18T07:44:49.004Z,47.1
2018-12-18T07:45:50.358Z,47
2018-12-18T07:46:52.028Z,47.6
2018-12-18T07:47:53.653Z,47.1
2018-12-18T07:48:55.279Z,47.5
2018-12-18T07:49:57.176Z,47.7
2018-12-18T07:50:58.809Z,47.7
2018-12-18T07:52:00.415Z,47.7
2018-12-18T07:53:02.354Z,47.6
2018-12-18T07:54:04.290Z,47.7
2018-12-18T07:55:05.923Z,47.3
2018-12-18T07:56:07.539Z,47.5
2018-12-18T07:57:08.445Z,47.6
2018-12-18T07:58:10.066Z,47.5
2018-12-18T07:59:11.966Z,47.6
2018-12-18T08:00:13.590Z,47.6
2018-12-18T08:01:14.995Z,47.7
2018-12-18T08:02:16.632Z,47.5
2018-12-18T08:03:18.641Z,47.4
2018-12-18T08:04:21.133Z,47.7
2018-12-18T08:05:22.858Z,47.8
2018-12-18T08:06:31.007Z,47.3
2018-12-18T08:07:32.340Z,47.9
2018-12-18T08:08:33.970Z,47.7
2018-12-18T08:09:35.873Z,47.9
2018-12-18T08:10:37.502Z,47.7
2018-12-18T08:11:39.135Z,47.3
2018-12-18T08:12:40.489Z,47.7
2018-12-18T08:13:41.826Z,47.6
2018-12-18T08:14:43.479Z,47.7
2018-12-18T08:15:44.810Z,47.7
2018-12-18T08:16:46.435Z,47.6
2018-12-18T08:17:48.340Z,47.5
2018-12-18T08:18:49.969Z,47.5
2018-12-18T08:19:51.568Z,47.6
2018-12-18T08:20:53.477Z,47.6
2018-12-18T08:21:55.371Z,47.7
2018-12-18T08:22:56.977Z,47.3
2018-12-18T08:23:58.101Z,47.5
2018-12-18T08:24:59.809Z,47.3
2018-12-18T08:26:01.162Z,47.2
2018-12-18T08:27:03.062Z,47.1
2018-12-18T08:28:04.686Z,47.2
2018-12-18T08:29:06.321Z,47.5
2018-12-18T08:30:08.277Z,47.6
2018-12-18T08:31:09.613Z,47.6
2018-12-18T08:32:11.521Z,47.6
2018-12-18T08:33:12.871Z,47.6
2018-12-18T08:34:14.774Z,47.7
2018-12-18T08:35:16.676Z,48
2018-12-18T08:36:18.008Z,47.7
2018-12-18T08:37:19.635Z,47.8
2018-12-18T08:38:21.237Z,47.7
2018-12-18T08:39:22.929Z,47.3
2018-12-18T08:40:24.626Z,48
2018-12-18T08:41:26.250Z,47.9
2018-12-18T08:42:28.152Z,48
2018-12-18T08:43:30.200Z,47.6
2018-12-18T08:44:31.362Z,47.6
2018-12-18T08:45:33.272Z,47.7
2018-12-18T08:46:34.891Z,47.6
2018-12-18T08:47:36.763Z,47.8
2018-12-18T08:48:38.188Z,47.8
2018-12-18T08:49:40.179Z,47.9
2018-12-18T08:50:41.715Z,47.8
2018-12-18T08:51:43.444Z,48.2
2018-12-18T08:52:45.065Z,47.9
2018-12-18T08:53:46.446Z,47.6
2018-12-18T08:54:48.119Z,47.8
2018-12-18T08:55:49.905Z,47.9
2018-12-18T08:56:51.362Z,47.8
2018-12-18T08:57:53.351Z,47.7
2018-12-18T08:58:55.106Z,48
2018-12-18T08:59:56.891Z,48
2018-12-18T09:00:58.791Z,47.7
2018-12-18T09:02:00.590Z,48.1
2018-12-18T09:03:02.699Z,47.6
2018-12-18T09:04:04.611Z,47.9
2018-12-18T09:05:06.254Z,47.9
2018-12-18T09:06:07.654Z,47.9
2018-12-18T09:07:09.684Z,48.2
2018-12-18T09:08:11.454Z,47.5
2018-12-18T09:09:13.019Z,48.1
2018-12-18T09:10:15.576Z,48.2
2018-12-18T09:11:17.246Z,48.1
2018-12-18T09:12:18.879Z,48.1
2018-12-18T09:13:20.503Z,47.9
2018-12-18T09:14:21.829Z,47.8
2018-12-18T09:15:23.456Z,47.9
2018-12-18T09:16:25.128Z,48
2018-12-18T09:17:26.265Z,48.3
2018-12-18T09:18:27.963Z,48
2018-12-18T09:19:29.316Z,47.7
2018-12-18T09:20:31.218Z,48.4
2018-12-18T09:21:32.572Z,47.8
2018-12-18T09:22:34.210Z,47.8
2018-12-18T09:23:35.270Z,48.4
2018-12-18T09:24:36.600Z,47.9
2018-12-18T09:25:37.675Z,47.8
2018-12-18T09:26:39.050Z,48.4
2018-12-18T09:27:40.403Z,48
2018-12-18T09:28:42.307Z,48.1
2018-12-18T09:29:43.656Z,48.3
2018-12-18T09:30:45.267Z,48.4
2018-12-18T09:31:46.325Z,47.9
2018-12-18T09:32:47.947Z,48.3
2018-12-18T09:33:49.687Z,48
2018-12-18T09:34:51.585Z,47.8
2018-12-18T09:35:52.931Z,48.2
2018-12-18T09:36:54.555Z,48.4
2018-12-18T09:37:56.204Z,48.3
2018-12-18T09:38:57.811Z,48.4
2018-12-18T09:39:59.169Z,47.7
2018-12-18T09:41:00.797Z,48.3
2018-12-18T09:42:02.426Z,47.9
2018-12-18T09:43:03.761Z,48.3
2018-12-18T09:44:05.388Z,48.4
2018-12-18T09:45:06.738Z,47.8
2018-12-18T09:46:08.349Z,47.8
2018-12-18T09:47:10.254Z,47.8
2018-12-18T09:48:12.167Z,48.4
2018-12-18T09:49:14.059Z,48.3
2018-12-18T09:50:15.391Z,47.7
2018-12-18T09:51:16.720Z,47.8
2018-12-18T09:52:18.091Z,48.2
2018-12-18T09:53:19.780Z,47.7
2018-12-18T09:54:21.112Z,48
2018-12-18T09:55:22.743Z,48.3
2018-12-18T09:56:24.373Z,48.2
2018-12-18T09:57:25.449Z,48
2018-12-18T09:58:27.133Z,47.9
2018-12-18T09:59:29.024Z,48.3
2018-12-18T10:00:30.651Z,48.2
2018-12-18T10:01:32.554Z,48.3
2018-12-18T10:02:34.275Z,47.8
2018-12-18T10:03:35.899Z,48
2018-12-18T10:04:37.535Z,48.2
2018-12-18T10:05:39.141Z,48
2018-12-18T10:06:40.747Z,47.9
2018-12-18T10:07:41.806Z,47.9
2018-12-18T10:08:43.132Z,47.5
2018-12-18T10:09:44.762Z,48.3
2018-12-18T10:10:46.669Z,48
2018-12-18T10:11:48.600Z,48
2018-12-18T10:12:50.525Z,47.9
2018-12-18T10:13:51.879Z,48
2018-12-18T10:14:53.228Z,48
2018-12-18T10:15:54.858Z,48
2018-12-18T10:16:56.763Z,48
2018-12-18T10:17:58.669Z,48
2018-12-18T10:19:00.301Z,48
2018-12-18T10:20:01.926Z,47.9
2018-12-18T10:21:02.987Z,48.1
2018-12-18T10:22:04.596Z,48.1
2018-12-18T10:23:06.507Z,48.4
2018-12-18T10:24:08.125Z,47.9
2018-12-18T10:25:10.031Z,48.4
2018-12-18T10:26:11.665Z,48.3
2018-12-18T10:27:13.294Z,47.8
2018-12-18T10:28:14.900Z,48.4
2018-12-18T10:29:16.233Z,48.1
2018-12-18T10:30:17.860Z,47.8
2018-12-18T10:31:19.761Z,47.7
2018-12-18T10:32:21.662Z,47.6
2018-12-18T10:33:23.317Z,48.4
2018-12-18T10:34:24.794Z,47.7
2018-12-18T10:35:26.417Z,48.4
2018-12-18T10:36:28.320Z,47.8
2018-12-18T10:37:30.226Z,48.3
2018-12-18T10:38:31.850Z,48.1
2018-12-18T10:39:33.752Z,48.3
2018-12-18T10:40:35.078Z,48.3
2018-12-18T10:41:36.686Z,48
2018-12-18T10:42:38.586Z,48.4
2018-12-18T10:43:40.489Z,48.3
2018-12-18T10:44:42.118Z,48.5
2018-12-18T10:45:43.517Z,48.3
2018-12-18T10:46:45.130Z,48.3
2018-12-18T10:47:47.035Z,47.9
2018-12-18T10:48:48.635Z,48.4
2018-12-18T10:49:50.044Z,48.4
2018-12-18T10:50:51.646Z,48.2
2018-12-18T10:51:53.276Z,47.8
2018-12-18T10:52:55.178Z,48.1
2018-12-18T10:53:56.313Z,48.1
2018-12-18T10:54:58.216Z,48.2
2018-12-18T10:56:00.139Z,48.1
2018-12-18T10:57:01.191Z,48.2
2018-12-18T10:58:03.166Z,48
2018-12-18T10:59:05.070Z,48.2
2018-12-18T11:00:06.971Z,48.1
2018-12-18T11:01:08.645Z,48.1
2018-12-18T11:02:10.549Z,48.2
2018-12-18T11:03:11.901Z,48
2018-12-18T11:04:12.954Z,48
2018-12-18T11:05:14.007Z,48.2
2018-12-18T11:06:15.343Z,48.3
2018-12-18T11:07:17.650Z,48
2018-12-18T11:08:19.280Z,47.9
2018-12-18T11:09:21.180Z,48.4
